createdAt,value
2023-04-25T00:04:26.911Z,96001.63
2023-04-25T00:09:30.172Z,96003.56
2023-04-25T00:14:36.393Z,95990.31
2023-04-25T00:19:39.227Z,95990.31
2023-04-25T00:24:42.052Z,95991.13
2023-04-25T00:29:46.516Z,95982.19
2023-04-25T00:34:49.331Z,95987.59
2023-04-25T00:39:54.574Z,95989.47
2023-04-25T00:44:59.251Z,95977.31
2023-04-25T00:50:02.187Z,95971.94
2023-04-25T00:55:05.741Z,95971.13
2023-04-25T01:00:11.925Z,95964.13
2023-04-25T01:05:14.811Z,95963.28
2023-04-25T01:10:17.701Z,95976.00
2023-04-25T01:15:21.883Z,95985.19
2023-04-25T01:20:24.958Z,95987.09
2023-04-25T01:25:29.154Z,95994.38
2023-04-25T01:30:32.157Z,95969.53
2023-04-25T01:35:35.191Z,95966.84
2023-04-25T01:40:41.393Z,95961.44
2023-04-25T01:45:44.631Z,95952.50
2023-04-25T01:50:48.583Z,95941.69
2023-04-25T01:55:52.957Z,95941.69
2023-04-25T02:00:56.110Z,95951.41
2023-04-25T02:05:59.097Z,95934.69
2023-04-25T02:11:04.317Z,95936.28
2023-04-25T02:16:07.863Z,95933.84
2023-04-25T02:21:10.780Z,95949.81
2023-04-25T02:26:15.311Z,95958.19
2023-04-25T02:31:18.637Z,95955.22
2023-04-25T02:36:21.558Z,95945.50
2023-04-25T02:41:25.679Z,95951.97
2023-04-25T02:46:38.293Z,95962.78
2023-04-25T02:51:43.333Z,95973.59
2023-04-25T02:56:47.495Z,95980.63
2023-04-25T03:01:50.825Z,95977.09
2023-04-25T03:06:54.110Z,95969.28
2023-04-25T03:11:58.254Z,95976.31
2023-04-25T03:17:01.175Z,95962.25
2023-04-25T03:22:04.097Z,95954.13
2023-04-25T03:27:08.389Z,95962.25
2023-04-25T03:32:11.645Z,95954.13
2023-04-25T03:37:14.881Z,95933.59
2023-04-25T03:42:20.742Z,95945.25
2023-04-25T03:47:24.641Z,95951.44
2023-04-25T03:52:27.533Z,95949.03
2023-04-25T03:57:31.682Z,95944.41
2023-04-25T04:02:35.904Z,95954.13
2023-04-25T04:07:40.876Z,95946.59
2023-04-25T04:12:45.112Z,95934.19
2023-04-25T04:17:48.029Z,95934.19
2023-04-25T04:22:50.882Z,95929.56
2023-04-25T04:27:55.812Z,95940.69
2023-04-25T04:32:59.198Z,95936.34
2023-04-25T04:38:02.124Z,95946.06
2023-04-25T04:43:06.758Z,95949.03
2023-04-25T04:48:09.754Z,95966.59
2023-04-25T04:53:13.426Z,95967.09
2023-04-25T04:58:19.166Z,95980.34
2023-04-25T05:03:22.670Z,95961.44
2023-04-25T05:08:25.602Z,95977.38
2023-04-25T05:13:29.762Z,95988.19
2023-04-25T05:18:32.560Z,95977.38
2023-04-25T05:23:35.468Z,95986.53
2023-04-25T05:28:39.946Z,95990.06
2023-04-25T05:33:42.963Z,96003.06
2023-04-25T05:38:46.053Z,96009.81
2023-04-25T05:43:51.765Z,96008.72
2023-04-25T05:48:55.468Z,96012.75
2023-04-25T05:53:58.258Z,96001.66
2023-04-25T05:59:02.439Z,96010.59
2023-04-25T06:04:06.034Z,96019.50
2023-04-25T06:09:09.129Z,96016.81
2023-04-25T06:14:13.303Z,96022.22
2023-04-25T06:19:16.106Z,96034.38
2023-04-25T06:24:18.975Z,96025.16
2023-04-25T06:29:23.304Z,96028.41
2023-04-25T06:34:26.163Z,96039.72
2023-04-25T06:39:28.988Z,96020.81
2023-04-25T06:44:33.199Z,96022.97
2023-04-25T06:49:37.314Z,96038.94
2023-04-25T06:54:40.190Z,96046.22
2023-04-25T06:59:44.432Z,96050.25
2023-04-25T07:04:47.520Z,96053.50
2023-04-25T07:09:51.021Z,96055.66
2023-04-25T07:14:55.375Z,96058.09
2023-04-25T07:19:58.223Z,96056.72
2023-04-25T07:25:01.404Z,96059.13
2023-04-25T07:30:06.981Z,96063.19
2023-04-25T07:35:10.436Z,96052.91
2023-04-25T07:40:13.897Z,96055.03
2023-04-25T07:45:18.196Z,96052.91
2023-04-25T07:50:21.068Z,96056.91
2023-04-25T07:55:23.897Z,96065.31
2023-04-25T08:00:28.053Z,96070.44
2023-04-25T08:05:31.093Z,96061.78
2023-04-25T08:10:34.092Z,96066.66
2023-04-25T08:15:38.312Z,96067.72
2023-04-25T08:20:41.502Z,96072.34
2023-04-25T08:25:44.826Z,96085.03
2023-04-25T08:30:49.048Z,96098.56
2023-04-25T08:35:51.918Z,96110.22
2023-04-25T08:40:56.648Z,96136.44
2023-04-25T08:46:02.300Z,96138.34
2023-04-25T08:56:15.238Z,96162.66
2023-04-25T09:01:20.669Z,96174.31
2023-04-25T09:06:24.264Z,96164.00
2023-04-25T09:11:27.282Z,96158.59
2023-04-25T09:16:33.626Z,96165.09
2023-04-25T09:21:37.289Z,96175.91
2023-04-25T09:26:40.333Z,96185.13
2023-04-25T09:31:44.654Z,96202.16
2023-04-25T09:36:48.791Z,96225.69
2023-04-25T09:41:57.645Z,96218.41
2023-04-25T09:47:03.758Z,96235.97
2023-04-25T09:52:06.632Z,96226.50
2023-04-25T09:57:13.451Z,96228.38
2023-04-25T10:02:20.620Z,96208.09
2023-04-25T10:07:26.813Z,96209.72
2023-04-25T10:12:29.810Z,96222.16
2023-04-25T10:17:35.050Z,96233.78
2023-04-25T10:22:40.412Z,96234.34
2023-04-25T10:27:43.510Z,96227.88
2023-04-25T10:32:50.804Z,96231.09
2023-04-25T10:38:05.603Z,96231.09
2023-04-25T10:43:39.179Z,96233.47
2023-04-25T10:48:49.071Z,96232.94
2023-04-25T10:53:59.844Z,96235.13
2023-04-25T10:59:11.293Z,96250.00
2023-04-25T11:04:26.166Z,96232.38
2023-04-25T11:09:29.559Z,96238.06
2023-04-25T11:14:32.898Z,96239.13
2023-04-25T11:19:37.093Z,96238.84
2023-04-25T11:24:40.948Z,96234.25
2023-04-25T11:29:43.839Z,96231.25
2023-04-25T11:34:49.823Z,96222.59
2023-04-25T11:39:53.623Z,96219.88
2023-04-25T11:44:57.070Z,96218.78
2023-04-25T11:50:01.836Z,96216.34
2023-04-25T11:55:09.105Z,96208.75
2023-04-25T12:00:18.722Z,96200.09
2023-04-25T12:05:33.869Z,96209.03
2023-04-25T12:10:39.572Z,96203.06
2023-04-25T12:15:42.858Z,96213.34
2023-04-25T12:20:47.612Z,96213.88
2023-04-25T12:25:50.618Z,96216.56
2023-04-25T12:30:58.476Z,96220.63
2023-04-25T12:36:09.484Z,96211.41
2023-04-25T12:41:13.292Z,96218.75
2023-04-25T12:46:16.252Z,96213.56
2023-04-25T12:51:20.567Z,96222.50
2023-04-25T12:56:24.666Z,96211.91
2023-04-25T13:01:28.764Z,96213.25
2023-04-25T13:06:33.176Z,96220.00
2023-04-25T13:11:36.750Z,96210.53
2023-04-25T13:16:39.738Z,96211.06
2023-04-25T13:21:44.065Z,96211.88
2023-04-25T13:26:46.843Z,96202.66
2023-04-25T13:31:49.727Z,96198.59
2023-04-25T13:36:54.533Z,96201.88
2023-04-25T13:41:57.423Z,96202.38
2023-04-25T13:47:01.676Z,96193.72
2023-04-25T13:52:06.427Z,96187.72
2023-04-25T13:57:09.458Z,96183.91
2023-04-25T14:02:12.507Z,96190.41
2023-04-25T14:07:18.109Z,96186.84
2023-04-25T14:12:21.294Z,96176.78
2023-04-25T14:17:24.152Z,96177.59
2023-04-25T14:22:28.312Z,96169.69
2023-04-25T14:27:31.151Z,96170.44
2023-04-25T14:32:34.153Z,96170.84
2023-04-25T14:37:38.453Z,96166.63
2023-04-25T14:42:41.383Z,96163.06
2023-04-25T14:47:44.357Z,96169.63
2023-04-25T14:52:49.043Z,96172.00
2023-04-25T14:57:51.907Z,96177.56
2023-04-25T15:02:54.928Z,96171.94
2023-04-25T15:08:00.392Z,96167.91
2023-04-25T15:13:03.411Z,96169.75
2023-04-25T15:18:06.729Z,96166.84
2023-04-25T15:23:11.054Z,96154.72
2023-04-25T15:28:15.190Z,96145.69
2023-04-25T15:33:18.035Z,96152.66
2023-04-25T15:38:22.217Z,96164.66
2023-04-25T15:43:25.109Z,96170.88
2023-04-25T15:48:28.237Z,96164.38
2023-04-25T15:53:32.618Z,96176.50
2023-04-25T15:58:36.184Z,96175.28
2023-04-25T16:03:39.943Z,96190.03
2023-04-25T16:08:44.208Z,96184.16
2023-04-25T16:13:47.065Z,96175.59
2023-04-25T16:18:49.865Z,96182.34
2023-04-25T16:23:54.071Z,96171.13
2023-04-25T16:28:56.970Z,96181.59
2023-04-25T16:33:59.774Z,96180.00
2023-04-25T16:39:04.104Z,96191.50
2023-04-25T16:44:08.242Z,96198.44
2023-04-25T16:49:11.268Z,96194.44
2023-04-25T16:54:16.002Z,96200.91
2023-04-25T16:59:18.944Z,96207.63
2023-04-25T17:04:22.152Z,96209.22
2023-04-25T17:09:28.798Z,96208.75
2023-04-25T17:14:35.285Z,96219.16
2023-04-25T17:19:38.669Z,96218.09
2023-04-25T17:24:43.046Z,96216.63
2023-04-25T17:29:45.946Z,96220.47
2023-04-25T17:34:49.295Z,96213.41
2023-04-25T17:39:53.526Z,96206.47
2023-04-25T17:44:56.475Z,96205.97
2023-04-25T17:49:59.315Z,96215.44
2023-04-25T17:55:03.766Z,96218.00
2023-04-25T18:00:09.199Z,96220.66
2023-04-25T18:05:12.163Z,96228.06
2023-04-25T18:10:16.441Z,96236.31
2023-04-25T18:15:19.304Z,96232.59
2023-04-25T18:20:22.429Z,96239.78
2023-04-25T18:25:26.578Z,96239.28
2023-04-25T18:30:30.067Z,96248.56
2023-04-25T18:35:32.937Z,96253.00
2023-04-25T18:40:47.012Z,96261.97
2023-04-25T18:45:57.729Z,96264.19
2023-04-25T18:51:00.716Z,96270.22
2023-04-25T18:56:05.260Z,96264.00
2023-04-25T19:01:08.949Z,96273.78
2023-04-25T19:06:11.803Z,96278.44
2023-04-25T19:16:23.774Z,96285.25
2023-04-25T19:21:27.104Z,96285.81
2023-04-25T19:26:31.273Z,96289.34
2023-04-25T19:31:34.710Z,96294.84
2023-04-25T19:36:39.475Z,96298.09
2023-04-25T19:41:43.619Z,96301.38
2023-04-25T19:46:46.950Z,96298.38
2023-04-25T19:51:49.834Z,96306.81
2023-04-25T19:56:54.649Z,96301.16
2023-04-25T20:01:57.492Z,96299.81
2023-04-25T20:07:00.329Z,96304.16
2023-04-25T20:12:05.325Z,96301.72
2023-04-25T20:17:10.918Z,96306.59
2023-04-25T20:22:13.744Z,96302.81
2023-04-25T20:27:18.220Z,96307.72
2023-04-25T20:32:21.055Z,96314.22
2023-04-25T20:37:24.137Z,96312.06
2023-04-25T20:42:28.835Z,96308.53
2023-04-25T20:47:33.299Z,96308.84
2023-04-25T20:52:37.184Z,96310.97
2023-04-25T20:57:41.377Z,96311.78
2023-04-25T21:02:44.471Z,96312.88
2023-04-25T21:07:47.456Z,96307.75
2023-04-25T21:12:52.362Z,96316.97
2023-04-25T21:17:55.296Z,96316.69
2023-04-25T21:22:58.109Z,96307.22
2023-04-25T21:28:03.060Z,96318.06
2023-04-25T21:33:06.401Z,96307.78
2023-04-25T21:38:09.324Z,96311.84
2023-04-25T21:43:13.498Z,96323.75
2023-04-25T21:48:16.301Z,96325.94
2023-04-25T21:53:19.174Z,96328.09
2023-04-25T21:58:23.568Z,96323.78
2023-04-25T22:03:26.550Z,96323.78
2023-04-25T22:08:29.647Z,96332.19
2023-04-25T22:13:33.863Z,96330.84
2023-04-25T22:18:36.647Z,96332.72
2023-04-25T22:23:39.813Z,96335.69
2023-04-25T22:28:44.506Z,96331.38
2023-04-25T22:33:48.443Z,96330.03
2023-04-25T22:38:52.650Z,96331.94
2023-04-25T22:43:57.532Z,96336.78
2023-04-25T22:49:00.326Z,96344.91
2023-04-25T22:54:03.760Z,96343.31
2023-04-25T22:59:10.156Z,96347.09
2023-04-25T23:04:13.355Z,96348.97
2023-04-25T23:09:17.031Z,96345.75
2023-04-25T23:14:22.102Z,96347.94
2023-04-25T23:19:24.902Z,96357.09
2023-04-25T23:24:27.736Z,96357.09
2023-04-25T23:29:33.255Z,96360.09
2023-04-25T23:34:36.623Z,96371.47
2023-04-25T23:39:39.425Z,96372.56
2023-04-25T23:44:43.861Z,96376.59
2023-04-25T23:49:46.771Z,96373.06
2023-04-25T23:54:49.597Z,96375.00
2023-04-25T23:59:53.900Z,96372.28
